createdAt,value
2022-12-13T00:01:28.987Z,8.07
2022-12-13T00:03:59.111Z,8.57
2022-12-13T00:06:28.842Z,10.40
2022-12-13T00:08:56.394Z,9.43
2022-12-13T00:11:24.164Z,8.10
2022-12-13T00:13:51.917Z,9.50
2022-12-13T00:16:22.845Z,6.80
2022-12-13T00:18:51.302Z,8.60
2022-12-13T00:21:20.789Z,8.30
2022-12-13T00:23:50.082Z,7.67
2022-12-13T00:26:20.807Z,9.07
2022-12-13T00:28:51.178Z,9.00
2022-12-13T00:31:53.491Z,8.53
2022-12-13T00:34:07.878Z,6.63
2022-12-13T00:36:35.517Z,9.37
2022-12-13T00:39:04.686Z,7.87
2022-12-13T00:41:33.999Z,6.57
2022-12-13T00:44:03.190Z,10.40
2022-12-13T00:46:31.461Z,7.17
2022-12-13T00:49:01.413Z,5.37
2022-12-13T00:51:30.503Z,9.47
2022-12-13T00:53:58.709Z,6.23
2022-12-13T00:56:29.745Z,9.10
2022-12-13T00:58:57.880Z,7.17
2022-12-13T01:01:28.156Z,7.13
2022-12-13T01:03:57.902Z,6.07
2022-12-13T01:06:37.684Z,8.00
2022-12-13T01:09:06.825Z,7.80
2022-12-13T01:11:35.750Z,8.00
2022-12-13T01:14:03.584Z,8.70
2022-12-13T01:16:31.397Z,7.00
2022-12-13T01:18:59.519Z,6.17
2022-12-13T01:21:27.101Z,5.70
2022-12-13T01:24:01.811Z,6.23
2022-12-13T01:26:29.535Z,6.43
2022-12-13T01:28:58.936Z,6.57
2022-12-13T01:31:26.966Z,6.13
2022-12-13T01:33:54.605Z,8.87
2022-12-13T01:36:27.293Z,9.37
2022-12-13T01:38:58.575Z,6.87
2022-12-13T01:41:28.238Z,7.03
2022-12-13T01:44:03.206Z,6.83
2022-12-13T01:46:32.600Z,9.37
2022-12-13T01:49:19.938Z,9.27
2022-12-13T01:51:54.172Z,7.87
2022-12-13T01:54:33.952Z,7.10
2022-12-13T01:57:06.303Z,7.90
2022-12-13T01:59:37.064Z,8.40
2022-12-13T02:02:06.000Z,6.87
2022-12-13T02:04:43.929Z,7.00
2022-12-13T02:07:13.494Z,9.30
2022-12-13T02:09:56.628Z,7.10
2022-12-13T02:12:30.101Z,8.50
2022-12-13T02:15:01.395Z,5.90
2022-12-13T02:17:45.136Z,7.27
2022-12-13T02:21:04.389Z,6.80
2022-12-13T02:24:08.838Z,7.10
2022-12-13T02:26:55.591Z,7.53
2022-12-13T02:30:01.892Z,5.47
2022-12-13T02:32:38.654Z,6.10
2022-12-13T02:35:11.048Z,8.33
2022-12-13T02:37:51.347Z,7.60
2022-12-13T02:40:24.756Z,5.50
2022-12-13T02:43:00.468Z,5.17
2022-12-13T02:45:34.550Z,6.23
2022-12-13T02:48:05.900Z,5.60
2022-12-13T02:50:35.126Z,5.30
2022-12-13T02:53:03.410Z,10.80
2022-12-13T02:55:32.392Z,6.00
2022-12-13T02:57:59.993Z,5.20
2022-12-13T03:00:39.823Z,7.20
2022-12-13T03:03:19.143Z,7.90
2022-12-13T03:06:07.713Z,4.80
2022-12-13T03:08:46.765Z,6.50
2022-12-13T03:11:17.238Z,9.37
2022-12-13T03:13:50.061Z,5.33
2022-12-13T03:16:28.395Z,7.80
2022-12-13T03:19:01.217Z,5.43
2022-12-13T03:21:29.992Z,7.17
2022-12-13T03:23:57.630Z,7.50
2022-12-13T03:26:27.800Z,7.90
2022-12-13T03:28:55.564Z,7.40
2022-12-13T03:31:23.331Z,7.80
2022-12-13T03:33:50.967Z,10.47
2022-12-13T03:36:20.700Z,6.77
2022-12-13T03:38:52.401Z,6.10
2022-12-13T03:41:23.820Z,7.67
2022-12-13T03:43:51.876Z,5.83
2022-12-13T03:46:19.566Z,5.47
2022-12-13T03:48:47.373Z,8.17
2022-12-13T03:51:15.104Z,6.83
2022-12-13T03:53:44.687Z,5.30
2022-12-13T03:56:12.374Z,5.63
2022-12-13T03:58:42.065Z,5.10
2022-12-13T04:01:12.024Z,6.40
2022-12-13T04:03:40.958Z,6.20
2022-12-13T04:06:09.475Z,5.87
2022-12-13T04:08:38.188Z,5.83
2022-12-13T04:11:22.445Z,8.00
2022-12-13T04:13:50.020Z,8.40
2022-12-13T04:16:17.699Z,7.80
2022-12-13T04:18:45.331Z,5.50
2022-12-13T04:21:13.034Z,8.30
2022-12-13T04:23:40.612Z,4.63
2022-12-13T04:26:10.289Z,7.10
2022-12-13T04:28:37.861Z,9.33
2022-12-13T04:31:05.650Z,7.80
2022-12-13T04:33:33.731Z,7.30
2022-12-13T04:36:01.836Z,7.07
2022-12-13T04:38:29.408Z,5.87
2022-12-13T04:41:06.364Z,5.57
2022-12-13T04:43:35.733Z,7.63
2022-12-13T04:46:03.570Z,9.37
2022-12-13T04:48:32.345Z,9.20
2022-12-13T04:51:00.973Z,6.37
2022-12-13T04:53:29.734Z,7.23
2022-12-13T04:55:57.316Z,6.27
2022-12-13T04:58:25.073Z,7.77
2022-12-13T05:00:54.000Z,7.87
2022-12-13T05:03:22.606Z,9.10
2022-12-13T05:05:50.202Z,9.30
2022-12-13T05:08:17.879Z,9.67
2022-12-13T05:10:45.495Z,5.77
2022-12-13T05:13:13.054Z,8.73
2022-12-13T05:15:41.378Z,10.00
2022-12-13T05:18:11.331Z,6.50
2022-12-13T05:20:40.102Z,7.53
2022-12-13T05:23:08.025Z,7.90
2022-12-13T05:25:36.659Z,7.90
2022-12-13T05:28:08.862Z,6.20
2022-12-13T05:30:52.860Z,9.00
2022-12-13T05:33:24.493Z,7.20
2022-12-13T05:35:55.076Z,8.20
2022-12-13T05:38:27.058Z,7.83
2022-12-13T05:40:55.028Z,5.30
2022-12-13T05:43:23.852Z,7.50
2022-12-13T05:46:10.221Z,7.27
2022-12-13T05:48:39.270Z,7.00
2022-12-13T05:51:11.117Z,7.53
2022-12-13T05:53:39.846Z,7.83
2022-12-13T05:56:08.524Z,8.93
2022-12-13T05:58:37.295Z,6.07
2022-12-13T06:01:07.643Z,6.33
2022-12-13T06:03:36.126Z,4.93
2022-12-13T06:06:06.738Z,7.37
2022-12-13T06:08:34.644Z,6.03
2022-12-13T06:11:11.397Z,6.90
2022-12-13T06:13:43.569Z,6.67
2022-12-13T06:16:23.708Z,6.70
2022-12-13T06:18:59.050Z,5.30
2022-12-13T06:21:40.663Z,7.10
2022-12-13T06:24:11.881Z,7.77
2022-12-13T06:26:39.897Z,7.40
2022-12-13T06:29:07.500Z,8.20
2022-12-13T06:31:35.206Z,6.80
2022-12-13T06:34:14.836Z,6.57
2022-12-13T06:36:44.448Z,10.20
2022-12-13T06:39:12.023Z,6.97
2022-12-13T06:41:39.638Z,7.03
2022-12-13T06:44:07.239Z,4.87
2022-12-13T06:46:35.264Z,7.97
2022-12-13T06:49:03.239Z,8.60
2022-12-13T06:51:32.572Z,5.93
2022-12-13T06:54:03.304Z,5.60
2022-12-13T06:56:32.666Z,5.60
2022-12-13T06:59:01.245Z,8.97
2022-12-13T07:01:37.336Z,7.90
2022-12-13T07:04:29.758Z,11.77
2022-12-13T07:06:53.718Z,10.90
2022-12-13T07:09:22.753Z,8.27
2022-12-13T07:11:52.453Z,9.77
2022-12-13T07:14:20.677Z,12.63
2022-12-13T07:16:48.227Z,11.17
2022-12-13T07:19:23.572Z,12.40
2022-12-13T07:21:52.602Z,11.53
2022-12-13T07:24:20.441Z,9.47
2022-12-13T07:26:49.601Z,15.47
2022-12-13T07:29:22.528Z,13.53
2022-12-13T07:31:50.546Z,9.73
2022-12-13T07:34:18.272Z,10.53
2022-12-13T07:36:45.951Z,14.77
2022-12-13T07:39:13.516Z,14.00
2022-12-13T07:41:41.079Z,11.90
2022-12-13T07:44:10.016Z,10.90
2022-12-13T07:46:37.587Z,11.43
2022-12-13T07:49:06.383Z,11.60
2022-12-13T07:51:34.893Z,11.17
2022-12-13T07:54:06.454Z,11.63
2022-12-13T07:56:34.903Z,12.30
2022-12-13T07:59:02.515Z,9.13
2022-12-13T08:01:35.384Z,6.43
2022-12-13T08:04:03.458Z,10.47
2022-12-13T08:06:31.422Z,11.20
2022-12-13T08:08:59.015Z,8.37
2022-12-13T08:11:27.082Z,8.77
2022-12-13T08:13:54.871Z,8.57
2022-12-13T08:16:27.157Z,9.17
2022-12-13T08:19:02.624Z,7.60
2022-12-13T08:24:23.471Z,8.93
2022-12-13T08:26:51.254Z,9.77
2022-12-13T08:29:23.427Z,6.97
2022-12-13T08:32:02.054Z,7.53
2022-12-13T08:34:31.548Z,9.80
2022-12-13T08:37:01.435Z,7.13
2022-12-13T08:39:30.163Z,7.67
2022-12-13T08:41:57.849Z,11.27
2022-12-13T08:44:25.478Z,10.33
2022-12-13T08:46:53.149Z,7.50
2022-12-13T08:49:22.228Z,6.90
2022-12-13T08:51:52.835Z,7.10
2022-12-13T08:54:30.943Z,7.77
2022-12-13T08:56:59.481Z,10.13
2022-12-13T08:59:27.347Z,7.93
2022-12-13T09:01:57.727Z,10.17
2022-12-13T09:04:32.084Z,8.50
2022-12-13T09:07:02.032Z,8.90
2022-12-13T09:09:30.450Z,9.37
2022-12-13T09:11:59.616Z,7.97
2022-12-13T09:14:34.243Z,12.10
2022-12-13T09:17:02.731Z,10.97
2022-12-13T09:19:37.504Z,8.50
2022-12-13T09:22:06.786Z,9.83
2022-12-13T09:24:42.742Z,7.47
2022-12-13T09:27:27.759Z,12.73
2022-12-13T09:29:56.890Z,8.07
2022-12-13T09:32:25.061Z,9.40
2022-12-13T09:34:52.895Z,11.40
2022-12-13T09:37:23.106Z,9.83
2022-12-13T09:39:54.981Z,10.60
2022-12-13T09:42:30.486Z,11.20
2022-12-13T09:45:03.691Z,12.03
2022-12-13T09:47:35.903Z,9.70
2022-12-13T09:50:15.175Z,9.93
2022-12-13T09:52:46.323Z,11.30
2022-12-13T09:55:22.742Z,8.70
2022-12-13T09:57:52.712Z,12.97
2022-12-13T10:00:23.041Z,9.10
2022-12-13T10:02:53.617Z,10.10
2022-12-13T10:05:37.166Z,10.03
2022-12-13T10:08:12.336Z,10.37
2022-12-13T10:10:40.105Z,11.73
2022-12-13T10:13:16.197Z,9.73
2022-12-13T10:15:49.864Z,10.93
2022-12-13T10:18:26.857Z,11.77
2022-12-13T10:20:55.424Z,13.20
2022-12-13T10:23:38.660Z,12.13
2022-12-13T10:26:23.788Z,11.23
2022-12-13T10:29:03.945Z,11.50
2022-12-13T10:31:39.899Z,12.00
2022-12-13T10:34:21.435Z,11.60
2022-12-13T10:36:49.174Z,10.77
2022-12-13T10:39:20.615Z,11.90
2022-12-13T10:41:50.086Z,12.00
2022-12-13T10:44:24.183Z,13.20
2022-12-13T10:47:00.626Z,12.00
2022-12-13T10:49:33.559Z,12.40
2022-12-13T10:52:02.790Z,12.10
2022-12-13T10:54:38.691Z,10.90
2022-12-13T10:57:12.188Z,10.20
2022-12-13T10:59:41.236Z,10.93
2022-12-13T11:02:30.414Z,11.77
2022-12-13T11:04:59.115Z,8.97
2022-12-13T11:07:29.784Z,12.70
2022-12-13T11:10:16.872Z,12.07
2022-12-13T11:12:44.835Z,12.13
2022-12-13T11:15:23.331Z,11.10
2022-12-13T11:17:53.708Z,13.73
2022-12-13T11:20:23.752Z,11.97
2022-12-13T11:22:59.961Z,10.20
2022-12-13T11:25:34.859Z,10.97
2022-12-13T11:28:27.746Z,11.80
2022-12-13T11:31:07.281Z,11.17
2022-12-13T11:33:47.767Z,10.80
2022-12-13T11:36:28.267Z,10.93
2022-12-13T11:39:10.483Z,9.50
2022-12-13T11:41:44.636Z,12.37
2022-12-13T11:44:17.540Z,12.10
2022-12-13T11:46:49.965Z,13.83
2022-12-13T11:49:19.655Z,12.30
2022-12-13T11:51:54.323Z,13.47
2022-12-13T11:54:30.922Z,15.00
2022-12-13T11:57:08.049Z,12.33
2022-12-13T11:59:43.279Z,13.10
2022-12-13T12:02:20.190Z,12.10
2022-12-13T12:04:58.062Z,13.53
2022-12-13T12:07:34.675Z,14.53
2022-12-13T12:10:12.149Z,14.57
2022-12-13T12:12:46.608Z,13.83
2022-12-13T12:15:31.381Z,13.67
2022-12-13T12:17:59.691Z,13.13
2022-12-13T12:20:44.748Z,15.90
2022-12-13T12:23:23.882Z,13.57
2022-12-13T12:25:56.788Z,11.17
2022-12-13T12:28:44.326Z,16.30
2022-12-13T12:31:24.584Z,16.37
2022-12-13T12:34:00.462Z,10.73
2022-12-13T12:36:46.879Z,13.20
2022-12-13T12:39:43.966Z,15.13
2022-12-13T12:43:03.644Z,13.47
2022-12-13T12:45:55.090Z,11.57
2022-12-13T12:49:00.303Z,10.90
2022-12-13T12:51:35.715Z,13.43
2022-12-13T12:54:22.834Z,13.77
2022-12-13T12:57:02.032Z,13.47
2022-12-13T12:59:38.956Z,13.33
2022-12-13T13:02:17.668Z,16.07
2022-12-13T13:04:49.429Z,16.70
2022-12-13T13:07:24.014Z,14.00
2022-12-13T13:09:54.823Z,14.10
2022-12-13T13:12:29.942Z,15.20
2022-12-13T13:14:58.403Z,15.67
2022-12-13T13:17:48.331Z,13.73
2022-12-13T13:20:23.203Z,17.17
2022-12-13T13:23:10.215Z,14.93
2022-12-13T13:26:00.360Z,14.07
2022-12-13T13:28:27.664Z,13.60
2022-12-13T13:31:04.583Z,12.40
2022-12-13T13:33:51.190Z,15.33
2022-12-13T13:36:47.190Z,14.40
2022-12-13T13:39:19.165Z,15.50
2022-12-13T13:42:17.816Z,14.00
2022-12-13T13:45:19.064Z,13.57
2022-12-13T13:47:55.668Z,16.03
2022-12-13T13:50:53.019Z,13.97
2022-12-13T13:54:06.714Z,14.20
2022-12-13T13:57:02.278Z,14.80
2022-12-13T14:00:10.143Z,14.97
2022-12-13T14:03:32.809Z,14.03
2022-12-13T14:06:35.196Z,14.27
2022-12-13T14:09:20.052Z,12.80
2022-12-13T14:12:28.814Z,12.90
2022-12-13T14:15:37.045Z,14.17
2022-12-13T14:18:46.192Z,13.13
2022-12-13T14:21:34.152Z,11.43
2022-12-13T14:24:25.836Z,12.23
2022-12-13T14:27:16.422Z,10.47
2022-12-13T14:29:48.558Z,14.37
2022-12-13T14:32:28.513Z,14.03
2022-12-13T14:34:56.923Z,13.37
2022-12-13T14:37:30.562Z,14.77
2022-12-13T14:39:58.729Z,13.47
2022-12-13T14:42:29.819Z,12.90
2022-12-13T14:45:15.930Z,15.70
2022-12-13T14:47:44.350Z,14.73
2022-12-13T14:50:17.791Z,14.30
2022-12-13T14:52:48.617Z,13.17
2022-12-13T14:55:25.793Z,13.87
2022-12-13T14:57:55.662Z,13.03
2022-12-13T15:00:27.351Z,14.03
2022-12-13T15:02:57.271Z,12.77
2022-12-13T15:05:28.391Z,11.30
2022-12-13T15:07:58.480Z,12.87
2022-12-13T15:10:32.831Z,13.07
2022-12-13T15:13:00.553Z,13.27
2022-12-13T15:15:31.272Z,11.20
2022-12-13T15:18:19.515Z,13.60
2022-12-13T15:20:52.126Z,12.27
2022-12-13T15:23:32.828Z,12.87
2022-12-13T15:26:13.857Z,13.47
2022-12-13T15:28:58.596Z,10.60
2022-12-13T15:31:26.830Z,13.60
2022-12-13T15:34:01.212Z,10.83
2022-12-13T15:36:30.287Z,11.20
2022-12-13T15:39:03.128Z,13.40
2022-12-13T15:41:34.640Z,13.37
2022-12-13T15:44:06.861Z,13.67
2022-12-13T15:46:38.176Z,10.60
2022-12-13T15:49:09.308Z,11.57
2022-12-13T15:51:54.770Z,10.40
2022-12-13T15:54:23.813Z,10.33
2022-12-13T15:57:04.483Z,10.63
2022-12-13T15:59:34.179Z,11.30
2022-12-13T16:02:03.071Z,11.83
2022-12-13T16:04:33.618Z,10.10
2022-12-13T16:07:02.303Z,12.20
2022-12-13T16:09:35.493Z,7.60
2022-12-13T16:12:06.743Z,10.60
2022-12-13T16:14:49.289Z,11.80
2022-12-13T16:17:24.412Z,8.80
2022-12-13T16:19:52.253Z,10.93
2022-12-13T16:22:21.746Z,10.10
2022-12-13T16:24:50.780Z,9.63
2022-12-13T16:27:18.577Z,12.17
2022-12-13T16:29:46.208Z,9.50
2022-12-13T16:32:13.803Z,9.60
2022-12-13T16:34:41.489Z,10.43
2022-12-13T16:37:26.673Z,8.07
2022-12-13T16:40:28.316Z,9.90
2022-12-13T16:42:59.050Z,9.03
2022-12-13T16:45:41.619Z,9.30
2022-12-13T16:48:10.537Z,7.17
2022-12-13T16:50:39.073Z,9.10
2022-12-13T16:53:07.147Z,12.47
2022-12-13T16:55:36.352Z,9.50
2022-12-13T16:58:07.578Z,9.13
2022-12-13T17:00:35.229Z,10.23
2022-12-13T17:03:02.870Z,11.27
2022-12-13T17:05:31.053Z,10.80
2022-12-13T17:07:58.595Z,9.23
2022-12-13T17:10:26.399Z,9.80
2022-12-13T17:12:55.617Z,14.77
2022-12-13T17:15:23.464Z,9.30
2022-12-13T17:17:51.119Z,10.20
2022-12-13T17:20:19.812Z,11.60
2022-12-13T17:22:47.994Z,10.80
2022-12-13T17:25:16.164Z,12.17
2022-12-13T17:27:44.064Z,12.50
2022-12-13T17:30:16.606Z,10.90
2022-12-13T17:32:44.726Z,11.60
2022-12-13T17:35:17.813Z,10.20
2022-12-13T17:37:46.168Z,14.40
2022-12-13T17:40:13.798Z,10.17
2022-12-13T17:42:42.482Z,10.80
2022-12-13T17:45:10.860Z,9.37
2022-12-13T17:47:40.198Z,9.93
2022-12-13T17:50:08.918Z,9.40
2022-12-13T17:52:36.862Z,9.37
2022-12-13T17:55:04.729Z,10.60
2022-12-13T17:57:33.281Z,9.93
2022-12-13T18:00:01.255Z,11.13
2022-12-13T18:02:29.210Z,8.37
2022-12-13T18:04:58.176Z,8.17
2022-12-13T18:07:25.860Z,8.23
2022-12-13T18:09:53.625Z,8.73
2022-12-13T18:12:21.272Z,8.60
2022-12-13T18:14:49.299Z,11.43
2022-12-13T18:17:19.135Z,9.90
2022-12-13T18:19:46.731Z,9.50
2022-12-13T18:22:15.651Z,10.77
2022-12-13T18:24:43.363Z,9.60
2022-12-13T18:27:11.028Z,11.20
2022-12-13T18:29:42.235Z,10.17
2022-12-13T18:32:22.862Z,8.70
2022-12-13T18:34:50.479Z,10.83
2022-12-13T18:37:23.708Z,10.40
2022-12-13T18:39:54.583Z,10.17
2022-12-13T18:42:22.785Z,10.23
2022-12-13T18:44:54.701Z,7.40
2022-12-13T18:47:22.829Z,8.87
2022-12-13T18:49:54.576Z,8.90
2022-12-13T18:52:24.658Z,9.93
2022-12-13T18:54:54.147Z,7.63
2022-12-13T18:57:22.536Z,7.67
2022-12-13T18:59:54.726Z,7.93
2022-12-13T19:02:22.795Z,8.43
2022-12-13T19:04:55.235Z,8.77
2022-12-13T19:07:24.624Z,11.20
2022-12-13T19:09:54.882Z,10.20
2022-12-13T19:12:22.949Z,10.07
2022-12-13T19:14:54.639Z,8.47
2022-12-13T19:17:22.904Z,9.50
2022-12-13T19:19:50.522Z,8.67
2022-12-13T19:22:18.118Z,9.90
2022-12-13T19:24:47.100Z,8.03
2022-12-13T19:27:15.104Z,8.03
2022-12-13T19:29:42.873Z,10.73
2022-12-13T19:32:10.558Z,8.90
2022-12-13T19:34:38.529Z,9.23
2022-12-13T19:37:06.803Z,11.30
2022-12-13T19:39:34.509Z,7.60
2022-12-13T19:42:03.435Z,9.50
2022-12-13T19:44:31.018Z,6.13
2022-12-13T19:46:59.887Z,10.03
2022-12-13T19:49:27.548Z,9.90
2022-12-13T19:51:55.148Z,8.17
2022-12-13T19:54:24.791Z,10.17
2022-12-13T19:56:53.965Z,10.87
2022-12-13T19:59:25.635Z,8.40
2022-12-13T20:01:53.360Z,8.77
2022-12-13T20:04:21.125Z,8.43
2022-12-13T20:06:48.953Z,6.60
2022-12-13T20:09:16.883Z,8.97
2022-12-13T20:11:44.929Z,9.47
2022-12-13T20:14:12.855Z,9.17
2022-12-13T20:16:43.578Z,8.53
2022-12-13T20:19:11.927Z,7.60
2022-12-13T20:21:39.524Z,9.63
2022-12-13T20:24:07.872Z,9.17
2022-12-13T20:26:35.667Z,8.70
2022-12-13T20:29:03.530Z,7.37
2022-12-13T20:31:33.609Z,8.40
2022-12-13T20:34:04.240Z,6.70
2022-12-13T20:36:32.788Z,7.80
2022-12-13T20:39:06.083Z,9.00
2022-12-13T20:41:35.633Z,7.97
2022-12-13T20:44:05.588Z,8.17
2022-12-13T20:46:34.069Z,7.90
2022-12-13T20:49:08.550Z,8.10
2022-12-13T20:51:37.272Z,8.70
2022-12-13T20:54:05.907Z,10.90
2022-12-13T20:56:36.068Z,6.37
2022-12-13T20:59:05.133Z,7.93
2022-12-13T21:01:36.412Z,7.10
2022-12-13T21:04:07.196Z,8.90
2022-12-13T21:06:37.434Z,7.60
2022-12-13T21:09:07.095Z,8.07
2022-12-13T21:11:37.230Z,7.67
2022-12-13T21:14:21.331Z,8.13
2022-12-13T21:16:53.108Z,6.57
2022-12-13T21:19:25.261Z,7.13
2022-12-13T21:21:54.274Z,7.27
2022-12-13T21:24:24.239Z,7.70
2022-12-13T21:26:52.971Z,8.43
2022-12-13T21:29:21.020Z,8.90
2022-12-13T21:31:51.035Z,7.40
2022-12-13T21:34:20.256Z,5.23
2022-12-13T21:36:52.270Z,8.10
2022-12-13T21:39:26.921Z,9.83
2022-12-13T21:41:55.146Z,10.07
2022-12-13T21:44:23.614Z,7.67
2022-12-13T21:49:42.278Z,6.93
2022-12-13T21:52:18.717Z,6.90
2022-12-13T21:54:47.110Z,6.57
2022-12-13T21:57:37.991Z,9.23
2022-12-13T22:00:08.342Z,7.70
2022-12-13T22:02:40.853Z,10.10
2022-12-13T22:05:11.190Z,7.67
2022-12-13T22:07:44.118Z,6.57
2022-12-13T22:10:15.811Z,9.30
2022-12-13T22:12:43.370Z,8.07
2022-12-13T22:15:14.086Z,7.93
2022-12-13T22:17:42.184Z,7.50
2022-12-13T22:20:12.768Z,7.70
2022-12-13T22:22:43.946Z,8.50
2022-12-13T22:25:11.783Z,6.80
2022-12-13T22:27:39.547Z,6.97
2022-12-13T22:30:08.749Z,6.67
2022-12-13T22:32:36.377Z,7.03
2022-12-13T22:35:04.795Z,8.97
2022-12-13T22:37:33.151Z,6.63
2022-12-13T22:40:02.095Z,7.63
2022-12-13T22:42:29.991Z,6.40
2022-12-13T22:44:57.904Z,6.80
2022-12-13T22:47:25.706Z,7.70
2022-12-13T22:49:53.405Z,8.63
2022-12-13T22:52:20.994Z,8.50
2022-12-13T22:54:48.596Z,9.40
2022-12-13T22:57:17.661Z,7.90
2022-12-13T22:59:45.289Z,7.43
2022-12-13T23:02:13.017Z,6.70
2022-12-13T23:04:40.827Z,6.03
2022-12-13T23:07:08.491Z,7.73
2022-12-13T23:09:36.096Z,9.90
2022-12-13T23:12:21.093Z,7.80
2022-12-13T23:14:51.243Z,5.63
2022-12-13T23:17:19.216Z,6.10
2022-12-13T23:19:49.771Z,8.30
2022-12-13T23:22:19.488Z,6.27
2022-12-13T23:24:47.089Z,6.70
2022-12-13T23:27:14.662Z,5.97
2022-12-13T23:29:42.515Z,6.07
2022-12-13T23:32:11.638Z,8.17
2022-12-13T23:34:39.313Z,4.80
2022-12-13T23:37:06.905Z,6.03
2022-12-13T23:39:35.808Z,5.27
2022-12-13T23:42:04.121Z,4.50
2022-12-13T23:44:31.865Z,7.83
2022-12-13T23:46:59.639Z,6.33
2022-12-13T23:49:28.821Z,6.57
2022-12-13T23:51:56.497Z,5.17
2022-12-13T23:54:24.292Z,5.67
2022-12-13T23:56:51.890Z,7.20
2022-12-13T23:59:19.555Z,5.40
